sensor_id;sensor_type;location;lat;lon;timestamp;P1;durP1;ratioP1;P2;durP2;ratioP2
67747;SDS011;54543;50.712;6.070;2024-03-23T00:53:59;3.60;;;1.20;;
67747;SDS011;54543;50.712;6.070;2024-03-23T00:56:25;3.38;;;1.25;;
67747;SDS011;54543;50.712;6.070;2024-03-23T00:58:50;3.47;;;1.20;;
67747;SDS011;54543;50.712;6.070;2024-03-23T01:01:16;3.38;;;1.33;;
67747;SDS011;54543;50.712;6.070;2024-03-23T01:03:42;3.67;;;1.30;;
67747;SDS011;54543;50.712;6.070;2024-03-23T01:06:07;4.82;;;1.73;;
67747;SDS011;54543;50.712;6.070;2024-03-23T01:08:33;1.95;;;1.20;;
67747;SDS011;54543;50.712;6.070;2024-03-23T01:10:59;3.40;;;1.25;;
67747;SDS011;54543;50.712;6.070;2024-03-23T01:13:26;3.22;;;1.30;;
67747;SDS011;54543;50.712;6.070;2024-03-23T01:15:52;3.42;;;1.10;;
67747;SDS011;54543;50.712;6.070;2024-03-23T01:18:19;1.55;;;0.90;;
67747;SDS011;54543;50.712;6.070;2024-03-23T01:20:45;1.85;;;1.05;;
67747;SDS011;54543;50.712;6.070;2024-03-23T01:23:11;2.40;;;1.20;;
67747;SDS011;54543;50.712;6.070;2024-03-23T01:25:37;3.67;;;1.30;;
67747;SDS011;54543;50.712;6.070;2024-03-23T01:28:03;3.13;;;1.40;;
67747;SDS011;54543;50.712;6.070;2024-03-23T01:30:29;1.98;;;1.10;;
67747;SDS011;54543;50.712;6.070;2024-03-23T01:32:55;1.83;;;1.10;;
67747;SDS011;54543;50.712;6.070;2024-03-23T01:35:21;4.72;;;1.10;;
67747;SDS011;54543;50.712;6.070;2024-03-23T01:37:47;2.05;;;1.17;;
67747;SDS011;54543;50.712;6.070;2024-03-23T01:40:12;1.83;;;1.00;;
67747;SDS011;54543;50.712;6.070;2024-03-23T01:42:40;1.30;;;0.90;;
67747;SDS011;54543;50.712;6.070;2024-03-23T01:45:07;1.90;;;0.98;;
67747;SDS011;54543;50.712;6.070;2024-03-23T01:47:34;1.52;;;0.95;;
67747;SDS011;54543;50.712;6.070;2024-03-23T01:49:59;3.08;;;1.20;;
67747;SDS011;54543;50.712;6.070;2024-03-23T01:52:25;3.50;;;1.48;;
67747;SDS011;54543;50.712;6.070;2024-03-23T01:54:52;4.20;;;1.40;;
67747;SDS011;54543;50.712;6.070;2024-03-23T01:57:18;2.85;;;1.20;;
67747;SDS011;54543;50.712;6.070;2024-03-23T01:59:45;2.30;;;1.23;;
67747;SDS011;54543;50.712;6.070;2024-03-23T02:02:12;4.90;;;1.15;;
67747;SDS011;54543;50.712;6.070;2024-03-23T02:04:37;3.08;;;1.25;;
67747;SDS011;54543;50.712;6.070;2024-03-23T02:07:03;4.10;;;1.45;;
67747;SDS011;54543;50.712;6.070;2024-03-23T02:09:30;2.95;;;1.33;;
67747;SDS011;54543;50.712;6.070;2024-03-23T02:11:57;5.10;;;1.33;;
67747;SDS011;54543;50.712;6.070;2024-03-23T02:14:23;4.13;;;1.20;;
67747;SDS011;54543;50.712;6.070;2024-03-23T02:16:48;5.05;;;1.77;;
67747;SDS011;54543;50.712;6.070;2024-03-23T02:19:14;2.10;;;1.13;;
67747;SDS011;54543;50.712;6.070;2024-03-23T02:21:39;2.80;;;1.23;;
67747;SDS011;54543;50.712;6.070;2024-03-23T02:24:05;4.78;;;1.20;;
67747;SDS011;54543;50.712;6.070;2024-03-23T02:26:31;3.95;;;1.38;;
67747;SDS011;54543;50.712;6.070;2024-03-23T02:28:57;6.20;;;1.65;;
67747;SDS011;54543;50.712;6.070;2024-03-23T02:31:22;4.00;;;1.20;;
67747;SDS011;54543;50.712;6.070;2024-03-23T02:33:48;3.78;;;1.20;;
67747;SDS011;54543;50.712;6.070;2024-03-23T02:36:13;1.95;;;0.93;;
67747;SDS011;54543;50.712;6.070;2024-03-23T02:38:39;8.18;;;1.10;;
67747;SDS011;54543;50.712;6.070;2024-03-23T02:41:05;4.28;;;1.17;;
67747;SDS011;54543;50.712;6.070;2024-03-23T02:43:30;2.42;;;1.10;;
67747;SDS011;54543;50.712;6.070;2024-03-23T02:45:56;1.95;;;1.00;;
67747;SDS011;54543;50.712;6.070;2024-03-23T02:48:22;4.78;;;1.30;;
67747;SDS011;54543;50.712;6.070;2024-03-23T02:50:48;2.70;;;1.00;;
67747;SDS011;54543;50.712;6.070;2024-03-23T02:53:14;2.85;;;1.15;;
67747;SDS011;54543;50.712;6.070;2024-03-23T02:55:40;2.42;;;1.05;;
67747;SDS011;54543;50.712;6.070;2024-03-23T02:58:05;3.40;;;1.00;;
67747;SDS011;54543;50.712;6.070;2024-03-23T03:00:31;3.45;;;0.98;;
67747;SDS011;54543;50.712;6.070;2024-03-23T03:02:56;3.38;;;1.10;;
67747;SDS011;54543;50.712;6.070;2024-03-23T03:05:22;3.00;;;1.10;;
67747;SDS011;54543;50.712;6.070;2024-03-23T03:07:48;2.55;;;1.13;;
67747;SDS011;54543;50.712;6.070;2024-03-23T03:10:13;4.28;;;1.23;;
67747;SDS011;54543;50.712;6.070;2024-03-23T03:12:39;4.22;;;0.95;;
67747;SDS011;54543;50.712;6.070;2024-03-23T03:15:05;3.30;;;1.00;;
67747;SDS011;54543;50.712;6.070;2024-03-23T03:17:31;1.98;;;1.00;;
67747;SDS011;54543;50.712;6.070;2024-03-23T03:19:56;6.10;;;1.65;;
67747;SDS011;54543;50.712;6.070;2024-03-23T03:22:22;1.58;;;1.00;;
67747;SDS011;54543;50.712;6.070;2024-03-23T03:24:49;3.80;;;1.23;;
67747;SDS011;54543;50.712;6.070;2024-03-23T03:27:14;2.95;;;1.10;;
67747;SDS011;54543;50.712;6.070;2024-03-23T03:29:40;3.42;;;1.08;;
67747;SDS011;54543;50.712;6.070;2024-03-23T03:32:05;3.92;;;1.10;;
67747;SDS011;54543;50.712;6.070;2024-03-23T03:34:31;3.58;;;1.10;;
67747;SDS011;54543;50.712;6.070;2024-03-23T03:36:57;3.65;;;1.20;;
67747;SDS011;54543;50.712;6.070;2024-03-23T03:39:23;3.75;;;1.20;;
67747;SDS011;54543;50.712;6.070;2024-03-23T03:41:49;4.10;;;1.63;;
67747;SDS011;54543;50.712;6.070;2024-03-23T03:44:14;3.70;;;1.15;;
67747;SDS011;54543;50.712;6.070;2024-03-23T03:46:40;4.45;;;1.20;;
67747;SDS011;54543;50.712;6.070;2024-03-23T03:49:05;3.83;;;1.20;;
67747;SDS011;54543;50.712;6.070;2024-03-23T03:51:31;3.60;;;1.10;;
67747;SDS011;54543;50.712;6.070;2024-03-23T03:53:57;5.60;;;1.10;;
67747;SDS011;54543;50.712;6.070;2024-03-23T03:56:22;6.13;;;1.17;;
67747;SDS011;54543;50.712;6.070;2024-03-23T03:58:48;3.08;;;1.13;;
67747;SDS011;54543;50.712;6.070;2024-03-23T04:01:14;3.08;;;1.10;;
67747;SDS011;54543;50.712;6.070;2024-03-23T04:03:39;5.15;;;1.20;;
67747;SDS011;54543;50.712;6.070;2024-03-23T04:06:09;5.05;;;1.30;;
67747;SDS011;54543;50.712;6.070;2024-03-23T04:08:34;3.60;;;1.30;;
67747;SDS011;54543;50.712;6.070;2024-03-23T04:11:00;3.15;;;1.45;;
67747;SDS011;54543;50.712;6.070;2024-03-23T04:13:26;4.30;;;1.20;;
67747;SDS011;54543;50.712;6.070;2024-03-23T04:15:55;2.97;;;1.10;;
67747;SDS011;54543;50.712;6.070;2024-03-23T04:18:21;4.32;;;1.35;;
67747;SDS011;54543;50.712;6.070;2024-03-23T04:20:48;3.58;;;1.08;;
67747;SDS011;54543;50.712;6.070;2024-03-23T04:23:14;3.15;;;1.30;;
67747;SDS011;54543;50.712;6.070;2024-03-23T04:25:39;5.70;;;1.50;;
67747;SDS011;54543;50.712;6.070;2024-03-23T04:28:05;6.93;;;1.33;;
67747;SDS011;54543;50.712;6.070;2024-03-23T04:30:32;5.07;;;1.35;;
67747;SDS011;54543;50.712;6.070;2024-03-23T04:32:57;2.65;;;1.08;;
67747;SDS011;54543;50.712;6.070;2024-03-23T04:35:23;2.45;;;1.35;;
67747;SDS011;54543;50.712;6.070;2024-03-23T04:37:50;3.13;;;1.20;;
67747;SDS011;54543;50.712;6.070;2024-03-23T04:40:20;4.13;;;1.08;;
67747;SDS011;54543;50.712;6.070;2024-03-23T04:42:46;2.80;;;1.10;;
67747;SDS011;54543;50.712;6.070;2024-03-23T04:45:12;4.18;;;1.38;;
67747;SDS011;54543;50.712;6.070;2024-03-23T04:47:38;3.25;;;1.30;;
67747;SDS011;54543;50.712;6.070;2024-03-23T04:50:04;1.77;;;1.20;;
67747;SDS011;54543;50.712;6.070;2024-03-23T04:52:30;3.63;;;1.30;;
67747;SDS011;54543;50.712;6.070;2024-03-23T04:54:56;3.95;;;1.23;;
67747;SDS011;54543;50.712;6.070;2024-03-23T04:57:22;6.30;;;1.52;;
67747;SDS011;54543;50.712;6.070;2024-03-23T04:59:47;3.40;;;1.27;;
67747;SDS011;54543;50.712;6.070;2024-03-23T05:02:14;4.18;;;1.55;;
67747;SDS011;54543;50.712;6.070;2024-03-23T05:04:40;4.53;;;2.00;;
67747;SDS011;54543;50.712;6.070;2024-03-23T05:07:06;5.10;;;1.80;;
67747;SDS011;54543;50.712;6.070;2024-03-23T05:09:32;4.18;;;1.73;;
67747;SDS011;54543;50.712;6.070;2024-03-23T05:11:58;6.78;;;1.80;;
67747;SDS011;54543;50.712;6.070;2024-03-23T05:14:25;4.72;;;1.70;;
67747;SDS011;54543;50.712;6.070;2024-03-23T05:16:51;6.60;;;1.75;;
67747;SDS011;54543;50.712;6.070;2024-03-23T05:19:17;5.55;;;1.83;;
67747;SDS011;54543;50.712;6.070;2024-03-23T05:21:43;6.72;;;2.15;;
67747;SDS011;54543;50.712;6.070;2024-03-23T05:24:09;4.72;;;1.83;;
67747;SDS011;54543;50.712;6.070;2024-03-23T05:26:34;6.82;;;1.80;;
67747;SDS011;54543;50.712;6.070;2024-03-23T05:29:00;4.80;;;1.88;;
67747;SDS011;54543;50.712;6.070;2024-03-23T05:31:27;5.70;;;2.28;;
67747;SDS011;54543;50.712;6.070;2024-03-23T05:33:54;4.07;;;1.92;;
67747;SDS011;54543;50.712;6.070;2024-03-23T05:36:19;4.95;;;1.65;;
67747;SDS011;54543;50.712;6.070;2024-03-23T05:38:45;3.88;;;1.55;;
67747;SDS011;54543;50.712;6.070;2024-03-23T05:41:11;8.65;;;1.90;;
67747;SDS011;54543;50.712;6.070;2024-03-23T05:43:37;5.00;;;1.85;;
67747;SDS011;54543;50.712;6.070;2024-03-23T05:46:02;6.22;;;2.13;;
67747;SDS011;54543;50.712;6.070;2024-03-23T05:48:30;5.65;;;2.13;;
67747;SDS011;54543;50.712;6.070;2024-03-23T05:50:56;4.50;;;2.00;;
67747;SDS011;54543;50.712;6.070;2024-03-23T05:53:22;4.40;;;2.38;;
67747;SDS011;54543;50.712;6.070;2024-03-23T05:55:49;5.20;;;2.25;;
67747;SDS011;54543;50.712;6.070;2024-03-23T05:58:15;5.97;;;2.53;;
67747;SDS011;54543;50.712;6.070;2024-03-23T06:00:42;4.68;;;2.00;;
67747;SDS011;54543;50.712;6.070;2024-03-23T06:03:08;5.70;;;2.63;;
67747;SDS011;54543;50.712;6.070;2024-03-23T06:05:34;8.65;;;3.20;;
67747;SDS011;54543;50.712;6.070;2024-03-23T06:08:00;6.53;;;3.55;;
67747;SDS011;54543;50.712;6.070;2024-03-23T06:10:25;6.63;;;3.33;;
67747;SDS011;54543;50.712;6.070;2024-03-23T06:12:51;13.73;;;4.35;;
67747;SDS011;54543;50.712;6.070;2024-03-23T06:15:20;7.03;;;3.95;;
67747;SDS011;54543;50.712;6.070;2024-03-23T06:17:47;9.25;;;4.10;;
67747;SDS011;54543;50.712;6.070;2024-03-23T06:20:13;6.78;;;3.78;;
67747;SDS011;54543;50.712;6.070;2024-03-23T06:22:39;5.78;;;2.97;;
67747;SDS011;54543;50.712;6.070;2024-03-23T06:25:06;9.85;;;4.55;;
67747;SDS011;54543;50.712;6.070;2024-03-23T06:27:32;8.82;;;3.97;;
67747;SDS011;54543;50.712;6.070;2024-03-23T06:29:59;12.05;;;5.20;;
67747;SDS011;54543;50.712;6.070;2024-03-23T06:32:25;12.38;;;7.05;;
67747;SDS011;54543;50.712;6.070;2024-03-23T06:34:50;10.57;;;5.45;;
67747;SDS011;54543;50.712;6.070;2024-03-23T06:37:16;12.70;;;5.70;;
67747;SDS011;54543;50.712;6.070;2024-03-23T06:39:41;14.93;;;5.93;;
67747;SDS011;54543;50.712;6.070;2024-03-23T06:42:07;10.18;;;4.38;;
67747;SDS011;54543;50.712;6.070;2024-03-23T06:44:33;11.60;;;6.63;;
67747;SDS011;54543;50.712;6.070;2024-03-23T06:46:59;12.25;;;5.93;;
67747;SDS011;54543;50.712;6.070;2024-03-23T06:49:25;8.85;;;4.65;;
67747;SDS011;54543;50.712;6.070;2024-03-23T06:51:50;10.02;;;4.63;;
67747;SDS011;54543;50.712;6.070;2024-03-23T06:54:16;10.15;;;5.00;;
67747;SDS011;54543;50.712;6.070;2024-03-23T06:56:45;8.38;;;4.97;;
67747;SDS011;54543;50.712;6.070;2024-03-23T06:59:11;9.40;;;4.75;;
67747;SDS011;54543;50.712;6.070;2024-03-23T07:01:37;12.73;;;5.07;;
67747;SDS011;54543;50.712;6.070;2024-03-23T07:04:04;11.60;;;4.68;;
67747;SDS011;54543;50.712;6.070;2024-03-23T07:06:32;9.07;;;4.47;;
67747;SDS011;54543;50.712;6.070;2024-03-23T07:08:58;13.38;;;4.72;;
67747;SDS011;54543;50.712;6.070;2024-03-23T07:11:24;11.00;;;4.93;;
67747;SDS011;54543;50.712;6.070;2024-03-23T07:13:50;12.48;;;6.45;;
67747;SDS011;54543;50.712;6.070;2024-03-23T07:16:17;9.82;;;5.03;;
67747;SDS011;54543;50.712;6.070;2024-03-23T07:18:43;12.75;;;7.05;;
67747;SDS011;54543;50.712;6.070;2024-03-23T07:21:10;9.35;;;5.80;;
67747;SDS011;54543;50.712;6.070;2024-03-23T07:23:35;15.63;;;7.03;;
67747;SDS011;54543;50.712;6.070;2024-03-23T07:26:04;10.63;;;5.82;;
67747;SDS011;54543;50.712;6.070;2024-03-23T07:28:32;13.35;;;5.20;;
67747;SDS011;54543;50.712;6.070;2024-03-23T07:31:06;12.13;;;5.28;;
67747;SDS011;54543;50.712;6.070;2024-03-23T07:33:35;11.15;;;5.30;;
67747;SDS011;54543;50.712;6.070;2024-03-23T07:36:02;13.68;;;5.43;;
67747;SDS011;54543;50.712;6.070;2024-03-23T07:38:28;9.10;;;4.03;;
67747;SDS011;54543;50.712;6.070;2024-03-23T07:41:07;7.82;;;3.75;;
67747;SDS011;54543;50.712;6.070;2024-03-23T07:43:37;9.05;;;3.78;;
67747;SDS011;54543;50.712;6.070;2024-03-23T07:46:04;11.93;;;3.95;;
67747;SDS011;54543;50.712;6.070;2024-03-23T07:48:30;9.27;;;4.22;;
67747;SDS011;54543;50.712;6.070;2024-03-23T07:51:02;10.30;;;3.83;;
67747;SDS011;54543;50.712;6.070;2024-03-23T07:53:33;7.68;;;2.85;;
67747;SDS011;54543;50.712;6.070;2024-03-23T07:58:27;8.30;;;3.10;;
67747;SDS011;54543;50.712;6.070;2024-03-23T08:00:53;7.57;;;3.03;;
67747;SDS011;54543;50.712;6.070;2024-03-23T08:03:19;5.60;;;2.90;;
67747;SDS011;54543;50.712;6.070;2024-03-23T08:05:45;6.68;;;2.75;;
67747;SDS011;54543;50.712;6.070;2024-03-23T08:08:11;7.65;;;3.38;;
67747;SDS011;54543;50.712;6.070;2024-03-23T08:10:37;8.57;;;3.25;;
67747;SDS011;54543;50.712;6.070;2024-03-23T08:15:38;5.70;;;2.60;;
67747;SDS011;54543;50.712;6.070;2024-03-23T08:18:03;7.25;;;2.70;;
67747;SDS011;54543;50.712;6.070;2024-03-23T08:20:29;8.20;;;2.90;;
67747;SDS011;54543;50.712;6.070;2024-03-23T08:22:55;7.40;;;3.05;;
67747;SDS011;54543;50.712;6.070;2024-03-23T08:25:22;7.95;;;3.53;;
67747;SDS011;54543;50.712;6.070;2024-03-23T08:27:48;8.40;;;3.20;;
67747;SDS011;54543;50.712;6.070;2024-03-23T08:30:13;7.22;;;3.28;;
67747;SDS011;54543;50.712;6.070;2024-03-23T08:32:39;7.03;;;2.97;;
67747;SDS011;54543;50.712;6.070;2024-03-23T08:35:05;11.10;;;4.25;;
67747;SDS011;54543;50.712;6.070;2024-03-23T08:37:31;8.15;;;3.78;;
67747;SDS011;54543;50.712;6.070;2024-03-23T08:39:56;7.20;;;3.30;;
67747;SDS011;54543;50.712;6.070;2024-03-23T08:42:23;11.23;;;3.75;;
67747;SDS011;54543;50.712;6.070;2024-03-23T08:44:48;9.40;;;4.70;;
67747;SDS011;54543;50.712;6.070;2024-03-23T08:47:17;9.70;;;3.85;;
67747;SDS011;54543;50.712;6.070;2024-03-23T08:49:44;8.57;;;3.58;;
67747;SDS011;54543;50.712;6.070;2024-03-23T08:52:09;10.25;;;3.92;;
67747;SDS011;54543;50.712;6.070;2024-03-23T08:54:35;11.85;;;4.82;;
67747;SDS011;54543;50.712;6.070;2024-03-23T08:57:00;7.03;;;3.70;;
67747;SDS011;54543;50.712;6.070;2024-03-23T08:59:26;11.70;;;4.00;;
67747;SDS011;54543;50.712;6.070;2024-03-23T09:01:52;10.48;;;3.85;;
67747;SDS011;54543;50.712;6.070;2024-03-23T09:04:18;7.38;;;3.90;;
67747;SDS011;54543;50.712;6.070;2024-03-23T09:06:44;9.68;;;3.55;;
67747;SDS011;54543;50.712;6.070;2024-03-23T09:09:09;26.73;;;8.30;;
67747;SDS011;54543;50.712;6.070;2024-03-23T09:11:35;13.15;;;5.63;;
67747;SDS011;54543;50.712;6.070;2024-03-23T09:14:02;9.93;;;3.78;;
67747;SDS011;54543;50.712;6.070;2024-03-23T09:16:28;10.82;;;3.85;;
67747;SDS011;54543;50.712;6.070;2024-03-23T09:18:54;8.27;;;2.40;;
67747;SDS011;54543;50.712;6.070;2024-03-23T09:21:19;3.75;;;1.40;;
67747;SDS011;54543;50.712;6.070;2024-03-23T09:23:45;0.98;;;0.80;;
67747;SDS011;54543;50.712;6.070;2024-03-23T09:26:11;3.20;;;0.82;;
67747;SDS011;54543;50.712;6.070;2024-03-23T09:28:37;5.75;;;1.77;;
67747;SDS011;54543;50.712;6.070;2024-03-23T09:31:03;2.72;;;1.25;;
67747;SDS011;54543;50.712;6.070;2024-03-23T09:33:35;1.98;;;1.80;;
67747;SDS011;54543;50.712;6.070;2024-03-23T09:36:04;3.75;;;1.50;;
67747;SDS011;54543;50.712;6.070;2024-03-23T09:38:31;3.78;;;1.50;;
67747;SDS011;54543;50.712;6.070;2024-03-23T09:40:57;3.28;;;1.52;;
67747;SDS011;54543;50.712;6.070;2024-03-23T09:43:23;5.72;;;2.42;;
67747;SDS011;54543;50.712;6.070;2024-03-23T09:45:49;5.90;;;2.53;;
67747;SDS011;54543;50.712;6.070;2024-03-23T09:48:15;6.32;;;2.22;;
67747;SDS011;54543;50.712;6.070;2024-03-23T09:50:42;7.22;;;2.50;;
67747;SDS011;54543;50.712;6.070;2024-03-23T09:53:10;6.97;;;2.28;;
67747;SDS011;54543;50.712;6.070;2024-03-23T09:55:40;8.65;;;2.90;;
67747;SDS011;54543;50.712;6.070;2024-03-23T09:58:07;7.95;;;3.25;;
67747;SDS011;54543;50.712;6.070;2024-03-23T10:00:34;12.60;;;4.97;;
67747;SDS011;54543;50.712;6.070;2024-03-23T10:03:00;9.27;;;4.47;;
67747;SDS011;54543;50.712;6.070;2024-03-23T10:05:30;14.88;;;5.03;;
67747;SDS011;54543;50.712;6.070;2024-03-23T10:10:42;15.43;;;5.05;;
67747;SDS011;54543;50.712;6.070;2024-03-23T10:13:09;11.57;;;4.25;;
67747;SDS011;54543;50.712;6.070;2024-03-23T10:15:35;10.23;;;4.50;;
67747;SDS011;54543;50.712;6.070;2024-03-23T10:18:20;9.18;;;4.68;;
67747;SDS011;54543;50.712;6.070;2024-03-23T10:23:30;10.68;;;5.32;;
67747;SDS011;54543;50.712;6.070;2024-03-23T10:26:12;7.53;;;4.22;;
67747;SDS011;54543;50.712;6.070;2024-03-23T10:28:59;9.20;;;5.05;;
67747;SDS011;54543;50.712;6.070;2024-03-23T10:31:32;8.15;;;4.25;;
67747;SDS011;54543;50.712;6.070;2024-03-23T10:33:57;13.20;;;6.07;;
67747;SDS011;54543;50.712;6.070;2024-03-23T10:36:23;16.42;;;6.90;;
67747;SDS011;54543;50.712;6.070;2024-03-23T10:38:51;14.45;;;6.45;;
67747;SDS011;54543;50.712;6.070;2024-03-23T10:41:17;16.67;;;6.40;;
67747;SDS011;54543;50.712;6.070;2024-03-23T10:43:47;16.13;;;6.93;;
67747;SDS011;54543;50.712;6.070;2024-03-23T10:46:14;13.07;;;7.22;;
67747;SDS011;54543;50.712;6.070;2024-03-23T10:48:40;19.52;;;8.63;;
67747;SDS011;54543;50.712;6.070;2024-03-23T10:51:09;15.98;;;7.65;;
67747;SDS011;54543;50.712;6.070;2024-03-23T10:53:36;14.25;;;6.65;;
67747;SDS011;54543;50.712;6.070;2024-03-23T10:56:04;13.35;;;6.28;;
67747;SDS011;54543;50.712;6.070;2024-03-23T10:58:33;15.18;;;7.30;;
67747;SDS011;54543;50.712;6.070;2024-03-23T11:01:04;12.38;;;5.28;;
67747;SDS011;54543;50.712;6.070;2024-03-23T11:03:34;13.95;;;5.72;;
67747;SDS011;54543;50.712;6.070;2024-03-23T11:06:06;8.70;;;5.28;;
67747;SDS011;54543;50.712;6.070;2024-03-23T11:08:38;10.85;;;4.88;;
67747;SDS011;54543;50.712;6.070;2024-03-23T11:11:38;8.48;;;4.80;;
67747;SDS011;54543;50.712;6.070;2024-03-23T11:13:58;7.10;;;4.63;;
67747;SDS011;54543;50.712;6.070;2024-03-23T11:16:28;9.73;;;4.60;;
67747;SDS011;54543;50.712;6.070;2024-03-23T11:22:04;11.88;;;4.68;;
67747;SDS011;54543;50.712;6.070;2024-03-23T11:24:30;11.48;;;4.50;;
67747;SDS011;54543;50.712;6.070;2024-03-23T11:26:56;7.88;;;4.50;;
67747;SDS011;54543;50.712;6.070;2024-03-23T11:29:25;11.90;;;5.57;;
67747;SDS011;54543;50.712;6.070;2024-03-23T11:31:51;8.65;;;4.45;;
67747;SDS011;54543;50.712;6.070;2024-03-23T11:34:18;7.60;;;4.40;;
67747;SDS011;54543;50.712;6.070;2024-03-23T11:36:45;6.55;;;4.07;;
67747;SDS011;54543;50.712;6.070;2024-03-23T11:39:12;9.27;;;3.95;;
67747;SDS011;54543;50.712;6.070;2024-03-23T11:41:45;8.32;;;4.10;;
67747;SDS011;54543;50.712;6.070;2024-03-23T11:44:18;14.35;;;6.22;;
67747;SDS011;54543;50.712;6.070;2024-03-23T11:46:45;11.10;;;4.97;;
67747;SDS011;54543;50.712;6.070;2024-03-23T11:49:24;11.18;;;4.45;;
67747;SDS011;54543;50.712;6.070;2024-03-23T11:51:54;9.27;;;4.18;;
67747;SDS011;54543;50.712;6.070;2024-03-23T11:54:25;8.43;;;4.00;;
67747;SDS011;54543;50.712;6.070;2024-03-23T11:56:58;6.78;;;3.30;;
67747;SDS011;54543;50.712;6.070;2024-03-23T11:59:39;7.63;;;3.83;;
67747;SDS011;54543;50.712;6.070;2024-03-23T12:02:09;11.80;;;4.43;;
67747;SDS011;54543;50.712;6.070;2024-03-23T12:04:39;14.68;;;7.60;;
67747;SDS011;54543;50.712;6.070;2024-03-23T12:07:11;14.15;;;7.32;;
67747;SDS011;54543;50.712;6.070;2024-03-23T12:09:38;10.65;;;6.63;;
67747;SDS011;54543;50.712;6.070;2024-03-23T12:12:08;7.65;;;3.88;;
67747;SDS011;54543;50.712;6.070;2024-03-23T12:14:35;9.63;;;5.97;;
67747;SDS011;54543;50.712;6.070;2024-03-23T12:17:08;7.53;;;2.92;;
67747;SDS011;54543;50.712;6.070;2024-03-23T12:19:41;5.38;;;2.22;;
67747;SDS011;54543;50.712;6.070;2024-03-23T12:22:08;5.18;;;2.60;;
67747;SDS011;54543;50.712;6.070;2024-03-23T12:24:34;10.38;;;5.25;;
67747;SDS011;54543;50.712;6.070;2024-03-23T12:27:00;8.07;;;4.03;;
67747;SDS011;54543;50.712;6.070;2024-03-23T12:29:32;4.35;;;2.10;;
67747;SDS011;54543;50.712;6.070;2024-03-23T12:32:01;8.55;;;2.35;;
67747;SDS011;54543;50.712;6.070;2024-03-23T12:34:28;3.88;;;2.05;;
67747;SDS011;54543;50.712;6.070;2024-03-23T12:36:55;4.22;;;2.10;;
67747;SDS011;54543;50.712;6.070;2024-03-23T12:39:21;5.65;;;1.77;;
67747;SDS011;54543;50.712;6.070;2024-03-23T12:41:47;7.32;;;2.20;;
67747;SDS011;54543;50.712;6.070;2024-03-23T12:44:13;4.93;;;3.17;;
67747;SDS011;54543;50.712;6.070;2024-03-23T12:46:40;5.60;;;3.08;;
67747;SDS011;54543;50.712;6.070;2024-03-23T12:49:08;7.80;;;2.85;;
67747;SDS011;54543;50.712;6.070;2024-03-23T12:51:34;7.63;;;2.72;;
67747;SDS011;54543;50.712;6.070;2024-03-23T12:54:00;9.43;;;3.85;;
67747;SDS011;54543;50.712;6.070;2024-03-23T12:56:26;7.40;;;3.08;;
67747;SDS011;54543;50.712;6.070;2024-03-23T12:58:53;6.55;;;2.30;;
67747;SDS011;54543;50.712;6.070;2024-03-23T13:01:20;5.30;;;2.95;;
67747;SDS011;54543;50.712;6.070;2024-03-23T13:03:46;7.65;;;2.03;;
67747;SDS011;54543;50.712;6.070;2024-03-23T13:06:12;5.57;;;2.20;;
67747;SDS011;54543;50.712;6.070;2024-03-23T13:08:38;2.92;;;1.40;;
67747;SDS011;54543;50.712;6.070;2024-03-23T13:11:05;3.33;;;1.45;;
67747;SDS011;54543;50.712;6.070;2024-03-23T13:13:31;3.28;;;1.73;;
67747;SDS011;54543;50.712;6.070;2024-03-23T13:15:57;4.65;;;1.92;;
67747;SDS011;54543;50.712;6.070;2024-03-23T13:18:22;4.75;;;2.30;;
67747;SDS011;54543;50.712;6.070;2024-03-23T13:20:48;4.88;;;1.80;;
67747;SDS011;54543;50.712;6.070;2024-03-23T13:23:13;5.07;;;2.33;;
67747;SDS011;54543;50.712;6.070;2024-03-23T13:25:39;7.05;;;2.60;;
67747;SDS011;54543;50.712;6.070;2024-03-23T13:28:05;5.20;;;2.85;;
67747;SDS011;54543;50.712;6.070;2024-03-23T13:30:31;5.93;;;1.90;;
67747;SDS011;54543;50.712;6.070;2024-03-23T13:32:56;4.13;;;1.90;;
67747;SDS011;54543;50.712;6.070;2024-03-23T13:35:22;4.88;;;1.70;;
67747;SDS011;54543;50.712;6.070;2024-03-23T13:37:48;4.22;;;1.60;;
67747;SDS011;54543;50.712;6.070;2024-03-23T13:40:13;3.45;;;1.20;;
67747;SDS011;54543;50.712;6.070;2024-03-23T13:42:39;5.53;;;2.70;;
67747;SDS011;54543;50.712;6.070;2024-03-23T13:45:05;8.02;;;3.78;;
67747;SDS011;54543;50.712;6.070;2024-03-23T13:47:30;6.80;;;3.67;;
67747;SDS011;54543;50.712;6.070;2024-03-23T13:49:56;5.82;;;2.97;;
67747;SDS011;54543;50.712;6.070;2024-03-23T13:52:22;5.60;;;2.72;;
67747;SDS011;54543;50.712;6.070;2024-03-23T13:54:51;5.20;;;3.30;;
67747;SDS011;54543;50.712;6.070;2024-03-23T13:57:17;6.82;;;2.10;;
67747;SDS011;54543;50.712;6.070;2024-03-23T13:59:46;4.38;;;1.85;;
67747;SDS011;54543;50.712;6.070;2024-03-23T14:02:12;4.82;;;1.73;;
67747;SDS011;54543;50.712;6.070;2024-03-23T14:04:39;4.65;;;2.30;;
67747;SDS011;54543;50.712;6.070;2024-03-23T14:07:05;5.20;;;2.10;;
67747;SDS011;54543;50.712;6.070;2024-03-23T14:09:32;3.33;;;1.63;;
67747;SDS011;54543;50.712;6.070;2024-03-23T14:11:58;3.08;;;1.73;;
67747;SDS011;54543;50.712;6.070;2024-03-23T14:14:25;3.28;;;2.22;;
67747;SDS011;54543;50.712;6.070;2024-03-23T14:16:51;3.00;;;1.50;;
67747;SDS011;54543;50.712;6.070;2024-03-23T14:19:16;4.45;;;2.15;;
67747;SDS011;54543;50.712;6.070;2024-03-23T14:21:42;5.13;;;2.05;;
67747;SDS011;54543;50.712;6.070;2024-03-23T14:24:07;4.80;;;1.75;;
67747;SDS011;54543;50.712;6.070;2024-03-23T14:26:34;3.00;;;1.88;;
67747;SDS011;54543;50.712;6.070;2024-03-23T14:29:00;4.63;;;2.50;;
67747;SDS011;54543;50.712;6.070;2024-03-23T14:31:26;6.25;;;3.60;;
67747;SDS011;54543;50.712;6.070;2024-03-23T14:33:51;5.15;;;3.47;;
67747;SDS011;54543;50.712;6.070;2024-03-23T14:36:17;4.78;;;3.42;;
67747;SDS011;54543;50.712;6.070;2024-03-23T14:38:52;7.32;;;4.60;;
67747;SDS011;54543;50.712;6.070;2024-03-23T14:41:17;11.63;;;8.43;;
67747;SDS011;54543;50.712;6.070;2024-03-23T14:43:43;9.82;;;6.47;;
67747;SDS011;54543;50.712;6.070;2024-03-23T14:48:38;6.50;;;3.72;;
67747;SDS011;54543;50.712;6.070;2024-03-23T14:51:05;4.13;;;2.50;;
67747;SDS011;54543;50.712;6.070;2024-03-23T14:53:41;4.85;;;2.90;;
67747;SDS011;54543;50.712;6.070;2024-03-23T14:56:11;3.85;;;2.40;;
67747;SDS011;54543;50.712;6.070;2024-03-23T14:58:40;2.92;;;1.42;;
67747;SDS011;54543;50.712;6.070;2024-03-23T15:01:06;4.47;;;1.52;;
67747;SDS011;54543;50.712;6.070;2024-03-23T15:03:35;10.20;;;4.30;;
67747;SDS011;54543;50.712;6.070;2024-03-23T15:06:02;6.03;;;3.05;;
67747;SDS011;54543;50.712;6.070;2024-03-23T15:08:28;4.13;;;2.25;;
67747;SDS011;54543;50.712;6.070;2024-03-23T15:10:54;5.38;;;2.10;;
67747;SDS011;54543;50.712;6.070;2024-03-23T15:13:20;4.15;;;2.15;;
67747;SDS011;54543;50.712;6.070;2024-03-23T15:15:48;2.53;;;1.65;;
67747;SDS011;54543;50.712;6.070;2024-03-23T15:18:14;4.32;;;2.40;;
67747;SDS011;54543;50.712;6.070;2024-03-23T15:20:41;3.08;;;1.85;;
67747;SDS011;54543;50.712;6.070;2024-03-23T15:23:07;6.45;;;2.03;;
67747;SDS011;54543;50.712;6.070;2024-03-23T15:25:33;3.53;;;1.38;;
67747;SDS011;54543;50.712;6.070;2024-03-23T15:27:58;1.88;;;1.10;;
67747;SDS011;54543;50.712;6.070;2024-03-23T15:30:25;4.53;;;2.65;;
67747;SDS011;54543;50.712;6.070;2024-03-23T15:32:54;5.38;;;3.28;;
67747;SDS011;54543;50.712;6.070;2024-03-23T15:35:22;3.05;;;1.85;;
67747;SDS011;54543;50.712;6.070;2024-03-23T15:37:48;6.53;;;2.58;;
67747;SDS011;54543;50.712;6.070;2024-03-23T15:40:15;3.30;;;1.75;;
67747;SDS011;54543;50.712;6.070;2024-03-23T15:42:40;5.00;;;2.30;;
67747;SDS011;54543;50.712;6.070;2024-03-23T15:45:06;3.47;;;1.88;;
67747;SDS011;54543;50.712;6.070;2024-03-23T15:47:33;3.60;;;2.25;;
67747;SDS011;54543;50.712;6.070;2024-03-23T15:49:59;4.50;;;2.20;;
67747;SDS011;54543;50.712;6.070;2024-03-23T15:52:25;5.40;;;1.90;;